Time;durP1;ratioP1;P1;durP2;ratioP2;P2;SDS_P1;SDS_P2;PMS_P1;PMS_P2;Temp;Humidity;BMP_temperature;BMP_pressure;BME280_temperature;BME280_humidity;BME280_pressure;Samples;Min_cycle;Max_cycle;Signal;HPM_P1;HPM_P2
2022/11/18 00:02:26;;;;;;;44.25;19.60;;;7.60;99.90;;;;;;6220880;23;20016;-89
2022/11/18 00:05:07;;;;;;;51.83;20.47;;;6.90;99.90;;;;;;6220829;23;20024;-89
2022/11/18 00:07:52;;;;;;;49.20;20.13;;;6.60;99.90;;;;;;6247735;23;20012;-89
2022/11/18 00:10:37;;;;;;;45.10;19.93;;;6.60;99.90;;;;;;6249725;23;20020;-89
2022/11/18 00:16:23;;;;;;;47.07;20.87;;;6.40;99.90;;;;;;6247358;23;20027;-89
2022/11/18 00:19:08;;;;;;;47.40;19.40;;;6.20;99.90;;;;;;6259860;23;20087;-89
2022/11/18 00:22:25;;;;;;;56.80;21.03;;;6.40;99.90;;;;;;6247151;23;20046;-89
2022/11/18 00:25:35;;;;;;;51.23;20.50;;;6.50;99.90;;;;;;6270411;22;20020;-88
2022/11/18 00:28:09;;;;;;;48.70;20.37;;;6.40;99.90;;;;;;6273998;22;20022;-89
2022/11/18 00:30:40;;;;;;;;;;;8.40;99.90;;;;;;6278080;22;20033;-89
2022/11/18 00:33:23;;;;;;;46.10;20.90;;;6.40;99.90;;;;;;6278063;22;20013;-88
2022/11/18 00:36:06;;;;;;;49.40;20.17;;;6.40;99.90;;;;;;6277429;22;20022;-89
2022/11/18 00:38:47;;;;;;;48.13;19.90;;;6.00;99.90;;;;;;6275245;22;20016;-89
2022/11/18 00:44:39;;;;;;;55.13;21.87;;;6.10;99.90;;;;;;6277245;22;20047;-89
2022/11/18 00:47:23;;;;;;;53.08;21.17;;;6.50;99.90;;;;;;6277541;22;20019;-89
2022/11/18 00:49:58;;;;;;;53.97;21.80;;;6.20;99.90;;;;;;6274966;22;20012;-89
2022/11/18 00:52:33;;;;;;;56.67;21.17;;;5.40;99.90;;;;;;6279354;22;20019;-88
2022/11/18 00:55:05;;;;;;;54.90;21.13;;;8.30;99.90;;;;;;6291642;22;20016;-89
2022/11/18 00:57:42;;;;;;;49.60;20.47;;;6.50;99.90;;;;;;6278288;22;20091;-89
2022/11/18 01:00:23;;;;;;;51.50;21.13;;;6.20;99.90;;;;;;6281795;22;20047;-89
2022/11/18 01:02:49;;;;;;;56.50;21.90;;;7.40;99.90;;;;;;6277933;22;20012;-88
2022/11/18 01:05:16;;;;;;;48.63;20.50;;;6.10;99.90;;;;;;6264409;22;20069;-88
2022/11/18 01:07:54;;;;;;;56.67;21.67;;;6.40;99.90;;;;;;6276546;22;20313;-88
2022/11/18 01:10:39;;;;;;;52.10;21.43;;;6.30;99.90;;;;;;6277877;22;20022;-89
2022/11/18 01:13:24;;;;;;;52.33;21.57;;;8.00;99.90;;;;;;6278442;22;20141;-89
2022/11/18 01:16:02;;;;;;;47.73;19.80;;;6.30;99.90;;;;;;6280521;22;20336;-89
2022/11/18 01:18:48;;;;;;;57.70;21.00;;;6.40;99.90;;;;;;6276279;22;20022;-89
2022/11/18 01:21:32;;;;;;;50.33;21.23;;;6.90;99.90;;;;;;6277246;22;20443;-89
2022/11/18 01:24:04;;;;;;;47.45;21.17;;;5.40;99.90;;;;;;6292401;22;20026;-89
2022/11/18 01:26:55;;;;;;;53.80;22.30;;;6.40;99.90;;;;;;6280967;22;20348;-88
2022/11/18 01:29:27;;;;;;;51.23;21.73;;;6.60;99.90;;;;;;6319044;22;20007;-88
2022/11/18 01:32:07;;;;;;;54.67;21.40;;;5.50;99.90;;;;;;6282540;22;20021;-88
2022/11/18 01:34:42;;;;;;;52.87;21.53;;;6.10;99.90;;;;;;6307549;22;20015;-88
2022/11/18 01:37:29;;;;;;;52.63;21.83;;;7.50;99.90;;;;;;6307033;22;20019;-88
2022/11/18 01:40:11;;;;;;;52.87;21.67;;;6.50;99.90;;;;;;6280703;22;20034;-90
2022/11/18 01:42:42;;;;;;;54.53;20.87;;;6.30;99.90;;;;;;6308569;22;20011;-89
2022/11/18 01:45:35;;;;;;;56.10;22.20;;;6.50;99.90;;;;;;6307366;22;20022;-89
2022/11/18 01:48:39;;;;;;;47.37;21.10;;;6.30;99.90;;;;;;6308088;22;20061;-89
2022/11/18 01:51:26;;;;;;;60.13;22.17;;;6.50;99.90;;;;;;6300790;22;20034;-89
2022/11/18 01:53:59;;;;;;;66.50;22.90;;;6.10;99.90;;;;;;6308922;22;20333;-89
2022/11/18 01:57:02;;;;;;;67.83;21.57;;;6.40;99.90;;;;;;6281831;22;20102;-89
2022/11/18 01:59:47;;;;;;;45.97;20.80;;;6.30;99.90;;;;;;6308605;22;20122;-89
2022/11/18 02:02:34;;;;;;;48.53;20.47;;;6.80;99.90;;;;;;6320563;22;20011;-88
2022/11/18 02:05:05;;;;;;;47.90;20.67;;;6.40;99.90;;;;;;6309159;22;20003;-88
2022/11/18 02:07:43;;;;;;;45.83;19.33;;;6.40;99.90;;;;;;6285264;22;20447;-89
2022/11/18 02:10:23;;;;;;;50.07;20.57;;;6.20;99.90;;;;;;6280840;22;20019;-88
2022/11/18 02:13:01;;;;;;;52.83;20.97;;;7.30;99.90;;;;;;6279351;22;20348;-89
2022/11/18 02:16:10;;;;;;;57.83;21.53;;;6.20;99.90;;;;;;6279676;22;20012;-89
2022/11/18 02:18:53;;;;;;;47.87;20.73;;;6.50;99.90;;;;;;6243891;22;20031;-89
2022/11/18 02:21:47;;;;;;;41.50;19.17;;;6.50;99.90;;;;;;6217586;22;20016;-89
2022/11/18 02:25:04;;;;;;;44.37;19.50;;;6.50;99.90;;;;;;6245358;23;20564;-89
2022/11/18 02:28:16;;;;;;;51.43;21.53;;;6.40;99.90;;;;;;6248277;22;20019;-89
2022/11/18 02:31:00;;;;;;;48.50;21.57;;;5.60;99.90;;;;;;6256160;22;20012;-89
2022/11/18 02:33:38;;;;;;;48.90;20.30;;;7.80;99.90;;;;;;6277547;22;20022;-89
2022/11/18 02:36:16;;;;;;;46.63;20.23;;;6.40;99.90;;;;;;6279621;22;20041;-89
2022/11/18 02:38:51;;;;;;;46.90;20.80;;;6.00;99.90;;;;;;6280137;22;20008;-89
2022/11/18 02:41:26;;;;;;;50.73;20.80;;;7.10;99.90;;;;;;6291016;22;20047;-89
2022/11/18 02:44:06;;;;;;;49.03;20.40;;;6.30;99.90;;;;;;6278303;22;20094;-89
2022/11/18 02:46:35;;;;;;;49.13;20.33;;;6.40;99.90;;;;;;6280746;22;20051;-89
2022/11/18 02:49:11;;;;;;;50.70;20.60;;;6.40;99.90;;;;;;6251731;22;20016;-90
2022/11/18 02:51:50;;;;;;;48.67;20.63;;;6.70;99.90;;;;;;6251945;22;20019;-89
2022/11/18 02:54:25;;;;;;;48.17;21.57;;;6.30;99.90;;;;;;6278408;22;20012;-89
2022/11/18 02:57:07;;;;;;;67.93;22.07;;;7.00;99.90;;;;;;6277234;22;20077;-89
2022/11/18 02:59:45;;;;;;;49.27;22.07;;;5.20;99.90;;;;;;6251718;22;20452;-90
2022/11/18 03:02:21;;;;;;;48.10;21.00;;;6.40;99.90;;;;;;6277836;22;20035;-90
2022/11/18 03:04:59;;;;;;;45.10;20.50;;;6.40;99.90;;;;;;6281414;22;20047;-89
2022/11/18 03:07:49;;;;;;;51.20;21.93;;;7.50;99.90;;;;;;6276994;22;20034;-89
2022/11/18 03:10:32;;;;;;;43.63;20.40;;;6.40;99.90;;;;;;6250259;22;20521;-89
2022/11/18 03:13:23;;;;;;;50.13;20.47;;;7.10;99.90;;;;;;6252599;22;20065;-89
2022/11/18 03:16:04;;;;;;;55.73;20.67;;;6.40;99.90;;;;;;6260033;22;20024;-89
2022/11/18 03:19:06;;;;;;;47.58;20.60;;;6.40;99.90;;;;;;6280291;22;20023;-90
2022/11/18 03:22:18;;;;;;;49.77;21.40;;;6.40;99.90;;;;;;6168965;22;20023;-88
2022/11/18 03:25:09;;;;;;;45.50;19.47;;;7.20;99.90;;;;;;6249621;22;20116;-89
2022/11/18 03:28:20;;;;;;;44.43;21.10;;;6.40;99.90;;;;;;6168233;22;20051;-89
2022/11/18 03:31:07;;;;;;;44.70;19.20;;;5.60;99.90;;;;;;6095134;23;20018;-89
2022/11/18 03:33:56;;;;;;;39.63;18.53;;;6.30;99.90;;;;;;6079907;22;20343;-89
2022/11/18 03:36:40;;;;;;;43.30;18.97;;;6.20;99.90;;;;;;6250921;22;20091;-89
2022/11/18 03:39:20;;;;;;;44.45;19.02;;;6.00;99.90;;;;;;6251300;22;20007;-89
2022/11/18 03:42:32;;;;;;;39.50;19.50;;;7.30;99.90;;;;;;6251135;22;20325;-89
2022/11/18 03:45:25;;;;;;;40.53;18.57;;;6.20;99.90;;;;;;6258533;22;20011;-88
2022/11/18 03:48:42;;;;;;;42.03;19.80;;;6.30;99.90;;;;;;6309077;22;20015;-88
2022/11/18 03:51:15;;;;;;;55.27;20.73;;;5.60;99.90;;;;;;6311157;22;20188;-89
2022/11/18 03:54:01;;;;;;;48.30;20.30;;;6.30;99.90;;;;;;6290874;22;20042;-89
2022/11/18 03:56:41;;;;;;;44.30;19.43;;;7.20;99.90;;;;;;6284021;22;20015;-88
2022/11/18 03:59:19;;;;;;;43.07;19.13;;;6.10;99.90;;;;;;6280497;22;20443;-89
2022/11/18 04:01:55;;;;;;;49.43;19.50;;;6.20;99.90;;;;;;6274654;22;20047;-89
2022/11/18 04:04:25;;;;;;;42.30;19.23;;;7.10;99.90;;;;;;6277838;22;20015;-89
2022/11/18 04:07:32;;;;;;;44.07;18.83;;;5.40;99.90;;;;;;6280504;22;20055;-89
2022/11/18 04:10:17;;;;;;;46.60;19.70;;;7.10;99.90;;;;;;6279933;22;20047;-88
2022/11/18 04:13:34;;;;;;;45.07;19.60;;;7.10;99.90;;;;;;6312336;22;20023;-89
2022/11/18 04:16:03;;;;;;;45.40;20.07;;;6.90;99.90;;;;;;6308832;22;20037;-89
2022/11/18 04:18:37;;;;;;;41.53;18.87;;;6.40;99.90;;;;;;6308209;22;20515;-89
2022/11/18 04:21:21;;;;;;;43.80;19.27;;;6.10;99.90;;;;;;6279759;22;20011;-89
2022/11/18 04:24:00;;;;;;;40.35;18.60;;;6.20;99.90;;;;;;6281534;22;20033;-89
2022/11/18 04:26:35;;;;;;;45.27;18.80;;;5.80;99.90;;;;;;6282639;22;20018;-89
2022/11/18 04:29:09;;;;;;;46.53;18.83;;;7.30;99.90;;;;;;6292623;22;20019;-88
2022/11/18 04:31:44;;;;;;;43.17;18.77;;;6.60;99.90;;;;;;6281416;22;20016;-89
2022/11/18 04:34:27;;;;;;;45.70;19.63;;;;;;;;;;6307976;22;20015;-88
2022/11/18 04:37:08;;;;;;;43.10;17.80;;;6.20;99.90;;;;;;6281057;22;20019;-89
2022/11/18 04:39:52;;;;;;;51.73;19.03;;;6.30;99.90;;;;;;6308230;22;20015;-89
2022/11/18 04:42:30;;;;;;;45.53;19.08;;;6.70;99.90;;;;;;6279654;22;20477;-88
2022/11/18 04:44:56;;;;;;;43.00;18.13;;;6.20;99.90;;;;;;6280410;22;20466;-88
2022/11/18 04:47:25;;;;;;;41.83;19.23;;;6.60;99.90;;;;;;6279676;22;20019;-87
2022/11/18 04:50:06;;;;;;;47.57;18.87;;;7.30;99.90;;;;;;6280700;22;20098;-88
2022/11/18 04:52:44;;;;;;;43.00;17.67;;;6.10;99.90;;;;;;6285546;22;20065;-88
2022/11/18 04:55:26;;;;;;;48.17;18.43;;;5.60;99.90;;;;;;6306880;22;20022;-89
2022/11/18 04:58:12;;;;;;;46.87;18.50;;;5.50;99.90;;;;;;6293070;22;20078;-87
2022/11/18 05:00:52;;;;;;;45.43;19.13;;;6.00;99.90;;;;;;6307512;22;19999;-88
2022/11/18 05:03:18;;;;;;;54.83;19.73;;;6.00;99.90;;;;;;6322101;22;20015;-88
2022/11/18 05:05:50;;;;;;;52.97;20.10;;;5.90;99.90;;;;;;6281142;22;20026;-88
2022/11/18 05:08:15;;;;;;;43.43;17.40;;;7.30;99.90;;;;;;6307393;22;20015;-88
2022/11/18 05:10:50;;;;;;;48.40;19.30;;;6.10;99.90;;;;;;6306991;22;20339;-89
2022/11/18 05:13:41;;;;;;;48.87;18.30;;;5.60;99.90;;;;;;6308404;22;20019;-89
2022/11/18 05:16:13;;;;;;;45.80;18.27;;;6.00;99.90;;;;;;6280186;22;20022;-89
2022/11/18 05:19:01;;;;;;;51.70;19.13;;;6.00;99.90;;;;;;6281099;22;20141;-89
2022/11/18 05:21:33;;;;;;;51.63;19.50;;;4.70;99.90;;;;;;6280689;22;20046;-88
2022/11/18 05:24:00;;;;;;;44.03;18.33;;;5.70;99.90;;;;;;6279533;22;20015;-89
2022/11/18 05:26:29;;;;;;;49.07;18.50;;;6.60;99.90;;;;;;6279749;22;20084;-89
2022/11/18 05:31:26;;;;;;;47.97;18.97;;;6.00;99.90;;;;;;6305350;22;20027;-89
2022/11/18 05:33:52;;;;;;;49.13;19.43;;;7.20;99.90;;;;;;6308395;22;20338;-89
2022/11/18 05:36:26;;;;;;;44.40;19.43;;;7.30;99.90;;;;;;6306509;22;20015;-89
2022/11/18 05:38:58;;;;;;;45.43;19.07;;;5.80;99.90;;;;;;6295478;22;20015;-88
2022/11/18 05:44:52;;;;;;;47.40;19.50;;;6.20;99.90;;;;;;6308667;22;20386;-89
2022/11/18 05:47:58;;;;;;;41.20;17.42;;;6.10;99.90;;;;;;6280091;22;20406;-89
2022/11/18 05:50:21;;;;;;;46.90;18.83;;;6.10;99.90;;;;;;6311837;22;20020;-89
2022/11/18 05:52:48;;;;;;;49.30;18.70;;;7.30;99.90;;;;;;6281362;22;20015;-89
2022/11/18 05:55:53;;;;;;;51.23;19.23;;;5.60;99.90;;;;;;6281173;22;20038;-89
2022/11/18 05:58:19;;;;;;;45.87;19.07;;;5.80;99.90;;;;;;6192406;22;20015;-88
2022/11/18 06:00:55;;;;;;;48.77;19.83;;;7.60;99.90;;;;;;6308159;22;20045;-88
2022/11/18 06:03:38;;;;;;;53.97;19.93;;;5.90;99.90;;;;;;6307860;22;20030;-89
2022/11/18 06:06:06;;;;;;;45.83;19.27;;;6.50;99.90;;;;;;6307529;22;20007;-89
2022/11/18 06:09:10;;;;;;;45.37;18.77;;;6.00;99.90;;;;;;6282785;22;20011;-88
2022/11/18 06:11:59;;;;;;;47.07;18.13;;;5.60;99.90;;;;;;6191263;22;20348;-88
2022/11/18 06:14:40;;;;;;;47.37;18.47;;;5.60;99.90;;;;;;6320139;22;20265;-88
2022/11/18 06:17:21;;;;;;;62.83;20.63;;;6.00;99.90;;;;;;6280327;22;20015;-89
2022/11/18 06:19:53;;;;;;;49.23;19.20;;;6.50;99.90;;;;;;6307324;22;20061;-89
2022/11/18 06:22:30;;;;;;;51.97;18.23;;;7.10;99.90;;;;;;6307255;22;20015;-89
2022/11/18 06:25:14;;;;;;;50.50;18.53;;;5.60;99.90;;;;;;6307498;22;20019;-89
2022/11/18 06:27:50;;;;;;;47.35;16.98;;;5.90;99.90;;;;;;6306350;22;20060;-89
2022/11/18 06:30:42;;;;;;;50.33;18.30;;;5.80;99.90;;;;;;6279043;22;20342;-89
2022/11/18 06:33:15;;;;;;;46.63;18.10;;;5.90;99.90;;;;;;6278649;22;20454;-88
2022/11/18 06:35:41;;;;;;;;;;;6.50;99.90;;;;;;6279209;22;20443;-88
2022/11/18 06:38:14;;;;;;;49.10;18.47;;;6.00;99.90;;;;;;6278587;22;19921;-89
2022/11/18 06:40:59;;;;;;;51.83;18.53;;;6.80;99.90;;;;;;6311796;22;20005;-88
2022/11/18 06:43:40;;;;;;;40.70;15.57;;;6.40;99.90;;;;;;6279778;22;20085;-89
2022/11/18 06:49:34;;;;;;;40.73;15.47;;;5.90;99.90;;;;;;6289903;22;20007;-88
2022/11/18 06:52:09;;;;;;;38.43;13.63;;;5.70;99.90;;;;;;6314260;22;20385;-89
2022/11/18 06:54:46;;;;;;;34.73;13.90;;;5.60;99.90;;;;;;6279404;22;20439;-88
2022/11/18 06:57:24;;;;;;;31.77;13.73;;;5.40;99.90;;;;;;6307259;22;20093;-88
2022/11/18 07:00:04;;;;;;;34.77;12.97;;;6.50;99.90;;;;;;6280190;22;20011;-90
2022/11/18 07:02:30;;;;;;;30.07;11.87;;;5.80;99.90;;;;;;6279075;22;20447;-89
2022/11/18 07:05:03;;;;;;;35.00;12.73;;;4.80;99.90;;;;;;6307814;22;20017;-89
2022/11/18 07:07:49;;;;;;;32.20;14.07;;;5.80;99.90;;;;;;6307621;22;20026;-89
2022/11/18 07:10:32;;;;;;;31.17;12.77;;;5.50;99.90;;;;;;6307830;22;20015;-89
2022/11/18 07:12:58;;;;;;;32.58;13.63;;;6.10;99.90;;;;;;6280527;22;20400;-89
2022/11/18 07:15:24;;;;;;;31.40;13.03;;;6.20;99.90;;;;;;6278135;22;20047;-89
2022/11/18 07:18:19;;;;;;;35.13;13.93;;;5.60;99.90;;;;;;6312362;22;20090;-89
2022/11/18 07:20:51;;;;;;;34.73;14.47;;;5.70;99.90;;;;;;6308501;22;20035;-89
2022/11/18 07:23:33;;;;;;;34.20;13.83;;;6.20;99.90;;;;;;6280469;22;20396;-89
2022/11/18 07:26:12;;;;;;;36.43;14.30;;;5.10;99.90;;;;;;6327276;22;20015;-88
2022/11/18 07:28:55;;;;;;;38.63;15.13;;;5.40;99.90;;;;;;6279796;22;20020;-88
2022/11/18 07:32:12;;;;;;;42.17;15.25;;;7.00;99.90;;;;;;6279127;22;20106;-86
2022/11/18 07:34:52;;;;;;;37.03;14.70;;;5.90;99.90;;;;;;6302355;22;20026;-86
2022/11/18 07:37:21;;;;;;;33.93;13.90;;;5.30;99.90;;;;;;6278086;22;20012;-86
2022/11/18 07:40:01;;;;;;;49.50;16.30;;;5.40;99.90;;;;;;6307342;22;20102;-86
2022/11/18 07:43:11;;;;;;;41.23;14.47;;;6.80;99.90;;;;;;6306903;22;20019;-86
2022/11/18 07:45:43;;;;;;;36.23;14.17;;;4.70;99.90;;;;;;6234169;22;20479;-86
2022/11/18 07:48:20;;;;;;;41.30;14.30;;;5.80;99.90;;;;;;6279084;22;20583;-85
2022/11/18 07:50:46;;;;;;;40.43;14.80;;;6.00;99.90;;;;;;6278573;22;20019;-85
2022/11/18 07:53:20;;;;;;;34.40;13.73;;;5.70;99.90;;;;;;6307129;22;20011;-86
2022/11/18 07:56:05;;;;;;;36.40;13.13;;;5.50;99.90;;;;;;6334235;22;20053;-87
2022/11/18 07:58:50;;;;;;;39.07;13.77;;;5.70;99.90;;;;;;6316895;22;20018;-88
2022/11/18 08:01:29;;;;;;;33.70;13.90;;;4.80;99.90;;;;;;6282556;22;20026;-89
2022/11/18 08:04:11;;;;;;;39.67;13.83;;;5.40;99.90;;;;;;6281225;22;20015;-87
2022/11/18 08:06:46;;;;;;;35.80;13.93;;;5.70;99.90;;;;;;6281977;22;20050;-88
2022/11/18 08:09:27;;;;;;;35.73;13.20;;;5.60;99.90;;;;;;6309454;22;20020;-88
2022/11/18 08:12:05;;;;;;;37.03;13.27;;;5.60;99.90;;;;;;6281837;22;20436;-87
2022/11/18 08:14:52;;;;;;;31.10;12.30;;;5.60;99.90;;;;;;6308787;22;20387;-87
2022/11/18 08:17:33;;;;;;;36.13;13.03;;;5.40;99.90;;;;;;6308789;22;20094;-88
2022/11/18 08:20:05;;;;;;;36.30;13.27;;;4.90;99.90;;;;;;6280377;22;20393;-88
2022/11/18 08:22:51;;;;;;;31.40;13.03;;;5.50;99.90;;;;;;6283598;22;20019;-86
2022/11/18 08:25:26;;;;;;;32.80;13.47;;;6.40;99.90;;;;;;6279883;22;20439;-84
2022/11/18 08:28:14;;;;;;;30.40;12.97;;;5.30;99.90;;;;;;6281591;22;20065;-84
2022/11/18 08:30:58;;;;;;;29.80;12.83;;;5.60;99.90;;;;;;6308373;22;20034;-84
2022/11/18 08:33:23;;;;;;;32.85;12.95;;;5.40;99.90;;;;;;6279679;22;20015;-84
2022/11/18 08:36:11;;;;;;;29.13;12.90;;;6.80;99.90;;;;;;6281127;22;20072;-84
2022/11/18 08:38:51;;;;;;;35.80;13.67;;;5.60;99.90;;;;;;6310818;22;20026;-84
2022/11/18 08:41:41;;;;;;;42.03;14.27;;;5.70;99.90;;;;;;6303926;22;20458;-84
2022/11/18 08:44:22;;;;;;;29.57;13.73;;;5.70;99.90;;;;;;6279717;22;20015;-84
2022/11/18 08:46:48;;;;;;;35.00;14.17;;;6.40;99.90;;;;;;6304654;22;20351;-84
2022/11/18 08:49:22;;;;;;;34.63;13.70;;;5.60;99.90;;;;;;6280011;22;20016;-84
2022/11/18 08:52:03;;;;;;;34.67;13.50;;;6.60;99.90;;;;;;6307442;22;20050;-84
2022/11/18 08:54:30;;;;;;;29.00;12.40;;;5.30;99.90;;;;;;6284884;22;20019;-84
2022/11/18 08:57:14;;;;;;;32.03;12.97;;;5.30;99.90;;;;;;6309209;22;20443;-85
2022/11/18 08:59:58;;;;;;;29.17;13.10;;;5.70;99.90;;;;;;6310254;22;20016;-84
2022/11/18 09:02:45;;;;;;;24.35;11.98;;;7.40;99.90;;;;;;6314068;22;20186;-84
2022/11/18 09:05:29;;;;;;;27.90;11.73;;;5.50;99.90;;;;;;6280543;22;20027;-86
2022/11/18 09:08:16;;;;;;;30.73;12.40;;;5.90;99.90;;;;;;6307364;22;20015;-86
2022/11/18 09:10:51;;;;;;;29.52;12.65;;;5.40;99.90;;;;;;6307725;22;20382;-84
2022/11/18 09:13:29;;;;;;;27.50;12.27;;;5.50;99.90;;;;;;6307197;22;20015;-84
2022/11/18 09:16:17;;;;;;;23.73;11.30;;;6.20;99.90;;;;;;6307123;22;20087;-86
2022/11/18 09:18:43;;;;;;;26.93;11.87;;;5.60;99.90;;;;;;6280129;22;20015;-85
2022/11/18 09:21:21;;;;;;;28.17;11.60;;;5.40;99.90;;;;;;6307486;22;20011;-84
2022/11/18 09:24:03;;;;;;;23.47;11.53;;;6.90;99.90;;;;;;6280272;22;20015;-85
2022/11/18 09:26:44;;;;;;;24.57;11.33;;;7.30;99.90;;;;;;6279896;22;20076;-85
2022/11/18 09:29:24;;;;;;;24.73;11.30;;;6.10;99.90;;;;;;6306687;22;20022;-85
2022/11/18 09:31:54;;;;;;;22.87;10.80;;;7.10;99.90;;;;;;6307961;22;20016;-85
2022/11/18 09:34:29;;;;;;;25.03;11.63;;;5.90;99.90;;;;;;6307060;22;20320;-85
2022/11/18 09:37:06;;;;;;;25.23;11.37;;;6.20;99.90;;;;;;6306922;22;20015;-85
2022/11/18 09:39:48;;;;;;;25.00;11.30;;;5.80;99.90;;;;;;6280302;22;20047;-85
2022/11/18 09:42:37;;;;;;;26.13;11.53;;;6.50;99.90;;;;;;6307211;22;20021;-85
2022/11/18 09:45:47;;;;;;;28.70;12.00;;;5.90;99.90;;;;;;6308398;22;20080;-85
2022/11/18 09:51:37;;;;;;;26.90;12.80;;;5.60;99.90;;;;;;6278817;22;20024;-86
2022/11/18 09:54:41;;;;;;;25.30;11.03;;;6.50;99.90;;;;;;6280208;22;20011;-88
2022/11/18 09:57:29;;;;;;;27.65;11.82;;;5.70;99.90;;;;;;6279534;22;20343;-86
2022/11/18 10:00:13;;;;;;;25.83;12.27;;;5.80;99.90;;;;;;6307383;22;20019;-87
2022/11/18 10:02:39;;;;;;;;;;;5.70;99.90;;;;;;6274610;22;20015;-86
2022/11/18 10:06:25;;;;;;;25.13;11.70;;;5.70;99.90;;;;;;6274661;22;20328;-85
2022/11/18 10:09:18;;;;;;;27.50;12.00;;;6.20;99.90;;;;;;6094753;23;20026;-85
2022/11/18 10:14:57;;;;;;;25.53;11.13;;;5.20;99.90;;;;;;6306472;22;20396;-85
2022/11/18 10:17:52;;;;;;;28.37;12.60;;;5.60;99.90;;;;;;6277575;22;20088;-86
2022/11/18 10:21:12;;;;;;;25.77;12.17;;;5.80;99.90;;;;;;6279600;22;20015;-85
2022/11/18 10:24:32;;;;;;;27.63;12.50;;;5.80;99.90;;;;;;6281714;22;20019;-86
2022/11/18 10:29:38;;;;;;;27.27;12.53;;;5.70;99.90;;;;;;6309086;22;20294;-86
2022/11/18 10:32:19;;;;;;;27.23;12.67;;;5.30;99.90;;;;;;6309094;22;20082;-85
2022/11/18 10:35:33;;;;;;;29.47;12.73;;;5.40;99.90;;;;;;6280208;22;20023;-87
2022/11/18 10:38:06;;;;;;;24.73;11.87;;;5.80;99.90;;;;;;6313074;22;20443;-86
2022/11/18 10:41:01;;;;;;;25.90;12.00;;;5.20;99.90;;;;;;6307934;22;20049;-86
2022/11/18 10:44:05;;;;;;;27.60;12.57;;;5.50;99.90;;;;;;6306335;22;20015;-86
2022/11/18 10:46:33;;;;;;;25.00;11.70;;;5.50;99.90;;;;;;6305053;22;20098;-86
2022/11/18 10:49:18;;;;;;;27.70;11.13;;;6.90;99.90;;;;;;6306514;22;20019;-86
2022/11/18 10:52:24;;;;;;;26.20;11.63;;;5.70;99.90;;;;;;6299573;22;20038;-86
2022/11/18 10:55:35;;;;;;;25.63;11.33;;;4.60;99.90;;;;;;6291926;22;20485;-85
2022/11/18 10:58:20;;;;;;;26.17;11.60;;;5.40;99.90;;;;;;6280955;22;20019;-86
2022/11/18 11:00:52;;;;;;;30.83;12.03;;;4.70;99.90;;;;;;6279435;22;20011;-87
2022/11/18 11:04:07;;;;;;;31.37;11.97;;;5.20;99.90;;;;;;6277387;22;20047;-87
2022/11/18 11:06:51;;;;;;;27.20;11.30;;;5.50;99.90;;;;;;6279223;22;20086;-86
2022/11/18 11:10:20;;;;;;;;;;;;;;;;;;;;;
2022/11/18 11:13:19;;;;;;;27.43;11.47;;;5.20;99.90;;;;;;6063753;23;20138;-85
2022/11/18 11:15:49;;;;;;;27.97;11.43;;;5.20;99.90;;;;;;6063589;23;20086;-86
2022/11/18 11:19:17;;;;;;;29.30;11.27;;;5.00;99.90;;;;;;6065132;23;20417;-87
2022/11/18 11:22:00;;;;;;;27.90;11.50;;;5.10;99.90;;;;;;6060711;23;20093;-89
2022/11/18 11:24:57;;;;;;;26.23;11.47;;;4.80;99.90;;;;;;6235762;22;20016;-88
2022/11/18 11:28:17;;;;;;;26.53;11.83;;;5.00;99.90;;;;;;6276163;22;20019;-87
2022/11/18 11:37:14;;;;;;;26.52;11.48;;;4.60;99.90;;;;;;6280359;22;20019;-87
2022/11/18 11:40:28;;;;;;;27.53;11.70;;;5.30;99.90;;;;;;6282087;22;20098;-87
2022/11/18 11:50:02;;;;;;;36.67;12.82;;;5.10;99.90;;;;;;6226138;22;20027;-86
2022/11/18 11:52:59;;;;;;;30.87;13.37;;;5.10;99.90;;;;;;6287757;22;20034;-86
2022/11/18 11:55:37;;;;;;;32.00;13.97;;;5.00;99.90;;;;;;6229065;22;20030;-88
2022/11/18 11:58:43;;;;;;;33.90;14.07;;;4.90;99.90;;;;;;6279880;22;20059;-85
2022/11/18 12:02:10;;;;;;;36.10;15.30;;;4.90;99.90;;;;;;6308813;22;20065;-90
2022/11/18 12:05:13;;;;;;;39.40;15.83;;;4.20;99.90;;;;;;6233581;22;20019;-86
2022/11/18 12:08:31;;;;;;;33.83;14.63;;;4.20;99.90;;;;;;6321863;22;19999;-88
2022/11/18 12:11:58;;;;;;;32.23;14.87;;;4.70;99.90;;;;;;6215878;23;20023;-87
2022/11/18 12:20:54;;;;;;;35.90;15.67;;;4.70;99.90;;;;;;6266797;22;20028;-87
2022/11/18 12:30:38;;;;;;;38.93;14.60;;;5.00;99.90;;;;;;6216407;23;20028;-89
2022/11/18 12:33:31;;;;;;;38.90;15.97;;;4.50;99.90;;;;;;6190093;23;20016;-90
2022/11/18 12:39:41;;;;;;;;;;;;;;;;;;;;;
2022/11/18 12:47:01;;;;;;;35.50;15.13;;;4.90;99.90;;;;;;6035824;23;20119;-90
2022/11/18 12:50:25;;;;;;;36.97;15.93;;;4.70;99.90;;;;;;6014308;23;20027;-87
2022/11/18 12:54:11;;;;;;;34.37;15.27;;;5.50;99.90;;;;;;6037669;23;20089;-88
2022/11/18 12:56:40;;;;;;;39.60;14.67;;;3.90;99.90;;;;;;6038032;23;20019;-87
2022/11/18 13:06:03;;;;;;;28.17;12.30;;;4.40;99.90;;;;;;6273661;22;20027;-88
2022/11/18 13:12:11;;;;;;;30.40;13.63;;;4.40;99.90;;;;;;6271475;22;20020;-88
2022/11/18 14:44:06;;;;;;;24.17;12.30;;;3.70;99.90;;;;;;6236287;23;20022;-86
2022/11/18 14:55:35;;;;;;;29.53;14.53;;;3.50;99.90;;;;;;6261893;22;20028;-87
2022/11/18 14:58:44;;;;;;;29.20;13.67;;;3.50;99.90;;;;;;6208753;22;20091;-85
2022/11/18 15:01:19;;;;;;;27.03;13.20;;;3.50;99.90;;;;;;6275274;22;20012;-85
2022/11/18 15:08:02;;;;;;;26.20;12.07;;;2.60;99.90;;;;;;6305866;22;20042;-87
2022/11/18 15:10:37;;;;;;;22.53;10.83;;;3.30;99.90;;;;;;6284615;22;20026;-86
2022/11/18 15:13:45;;;;;;;23.90;11.47;;;3.00;99.90;;;;;;6279850;22;20016;-87
2022/11/18 15:16:15;;;;;;;23.73;11.10;;;3.40;99.90;;;;;;6281364;22;20015;-86
2022/11/18 15:21:47;;;;;;;22.80;10.80;;;4.00;99.90;;;;;;6225741;22;20028;-88
2022/11/18 15:24:24;;;;;;;20.67;10.17;;;2.60;99.90;;;;;;6282302;22;20026;-86
2022/11/18 15:27:08;;;;;;;;;;;;;;;;;;;;;
2022/11/18 15:30:05;;;;;;;21.53;9.63;;;3.40;99.90;;;;;;6251708;22;20035;-86
2022/11/18 15:32:40;;;;;;;23.60;10.90;;;3.20;99.90;;;;;;6281868;22;20027;-86
2022/11/18 15:35:06;;;;;;;20.97;10.37;;;2.10;99.90;;;;;;6281083;22;20057;-86
2022/11/18 15:38:42;;;;;;;25.67;11.80;;;2.60;99.90;;;;;;6281758;22;20105;-86
2022/11/18 15:41:33;;;;;;;20.87;10.30;;;2.00;99.90;;;;;;6123769;23;20104;-87
2022/11/18 15:44:44;;;;;;;21.63;10.90;;;3.40;99.90;;;;;;6073922;23;20088;-87
2022/11/18 15:47:53;;;;;;;24.10;11.33;;;3.20;99.90;;;;;;6106451;23;20370;-87
2022/11/18 15:50:35;;;;;;;22.83;11.43;;;3.10;99.90;;;;;;6038552;23;20026;-85
2022/11/18 15:53:12;;;;;;;22.90;11.13;;;3.10;99.90;;;;;;6040221;23;20395;-85
2022/11/18 15:55:38;;;;;;;22.57;11.00;;;2.40;99.90;;;;;;6066352;23;20026;-84
2022/11/18 15:58:29;;;;;;;21.23;10.47;;;2.40;99.90;;;;;;6219944;22;20025;-85
2022/11/18 16:00:57;;;;;;;21.67;10.50;;;2.50;99.90;;;;;;6307190;22;20016;-84
2022/11/18 16:03:23;;;;;;;23.07;10.43;;;2.50;99.90;;;;;;6278040;22;20020;-85
2022/11/18 16:06:00;;;;;;;22.17;10.67;;;2.50;99.90;;;;;;6278686;22;20015;-84
2022/11/18 16:08:26;;;;;;;27.53;11.90;;;2.70;99.90;;;;;;6278954;22;20457;-86
2022/11/18 16:16:56;;;;;;;27.17;12.47;;;2.60;99.90;;;;;;6301631;22;20496;-88
2022/11/18 16:19:50;;;;;;;24.10;11.60;;;2.00;99.90;;;;;;6282496;22;20019;-87
2022/11/18 16:33:42;;;;;;;23.10;12.32;;;1.80;99.90;;;;;;6309142;22;20066;-88
2022/11/18 16:39:15;;;;;;;24.23;12.03;;;2.30;99.90;;;;;;6305633;22;20026;-87
2022/11/18 16:42:03;;;;;;;25.90;12.60;;;2.70;99.90;;;;;;6309198;22;20026;-90
2022/11/18 16:44:41;;;;;;;24.03;12.40;;;2.70;99.90;;;;;;6308085;22;20339;-89
2022/11/18 16:47:19;;;;;;;26.20;13.40;;;2.00;99.90;;;;;;6281951;22;20018;-92
2022/11/18 16:49:57;;;;;;;24.70;12.53;;;2.60;99.90;;;;;;6283475;22;20007;-90
2022/11/18 16:52:35;;;;;;;24.33;12.07;;;2.20;99.90;;;;;;6309487;22;20143;-91
2022/11/18 16:55:16;;;;;;;24.00;11.63;;;1.90;99.90;;;;;;6281497;22;20019;-88
2022/11/18 16:58:03;;;;;;;22.60;12.20;;;2.40;99.90;;;;;;6326816;22;20022;-88
2022/11/18 17:00:40;;;;;;;24.97;12.37;;;2.10;99.90;;;;;;6309890;22;20016;-89
2022/11/18 17:03:12;;;;;;;23.90;11.50;;;4.30;99.90;;;;;;6316209;22;20062;-89
2022/11/18 17:05:46;;;;;;;24.43;11.77;;;1.90;99.90;;;;;;6285122;22;20021;-91
2022/11/18 17:08:23;;;;;;;25.10;12.00;;;4.00;99.90;;;;;;6307986;22;20030;-90
2022/11/18 17:10:52;;;;;;;23.43;12.50;;;2.20;99.90;;;;;;6299049;22;20094;-89
2022/11/18 17:13:26;;;;;;;24.70;11.93;;;1.20;99.90;;;;;;6306861;22;20098;-89
2022/11/18 17:16:40;;;;;;;23.03;11.80;;;2.60;99.90;;;;;;6282987;22;20470;-89
2022/11/18 17:19:21;;;;;;;25.83;12.50;;;1.50;99.90;;;;;;6198705;22;20019;-88
2022/11/18 17:22:02;;;;;;;22.83;12.13;;;2.20;99.90;;;;;;6279776;22;20019;-89